Time;durP1;ratioP1;P1;durP2;ratioP2;P2;SDS_P1;SDS_P2;PMS_P1;PMS_P2;Temp;Humidity;BMP_temperature;BMP_pressure;BME280_temperature;BME280_humidity;BME280_pressure;Samples;Min_cycle;Max_cycle;Signal;HPM_P1;HPM_P2
2023/10/01 00:00:46;;;;;;;11.63;6.45;;;;;;;;;;5048557;28;20024;-69
2023/10/01 00:03:11;;;;;;;12.55;7.22;;;;;;;;;;5049654;28;20035;-69
2023/10/01 00:05:41;;;;;;;11.43;6.57;;;;;;;;;;5050129;28;20012;-69
2023/10/01 00:08:08;;;;;;;10.95;7.25;;;;;;;;;;5046424;28;20020;-68
2023/10/01 00:10:34;;;;;;;11.90;6.70;;;;;;;;;;5037869;28;20044;-66
2023/10/01 00:12:59;;;;;;;10.52;6.35;;;;;;;;;;5047566;28;20996;-67
2023/10/01 00:15:25;;;;;;;10.48;6.20;;;;;;;;;;5047474;28;20054;-67
2023/10/01 00:17:50;;;;;;;11.10;6.53;;;;;;;;;;5047129;28;20042;-67
2023/10/01 00:20:20;;;;;;;10.00;5.97;;;;;;;;;;5040838;28;20031;-67
2023/10/01 00:22:57;;;;;;;9.93;5.90;;;;;;;;;;5043772;28;20024;-67
2023/10/01 00:25:23;;;;;;;9.23;5.65;;;;;;;;;;5050850;28;20089;-67
2023/10/01 00:27:49;;;;;;;10.98;5.80;;;;;;;;;;5039723;28;20008;-67
2023/10/01 00:30:14;;;;;;;8.82;5.53;;;;;;;;;;5044808;28;20055;-67
2023/10/01 00:32:40;;;;;;;9.55;6.00;;;;;;;;;;5049890;28;20851;-67
2023/10/01 00:35:06;;;;;;;10.15;5.45;;;;;;;;;;5038295;28;20036;-67
2023/10/01 00:37:32;;;;;;;6.90;4.75;;;;;;;;;;5044455;28;20020;-68
2023/10/01 00:39:59;;;;;;;10.23;5.78;;;;;;;;;;5050410;28;20210;-68
2023/10/01 00:42:26;;;;;;;9.77;5.03;;;;;;;;;;5048559;28;20272;-68
2023/10/01 00:44:51;;;;;;;8.95;5.07;;;;;;;;;;5050450;28;20945;-68
2023/10/01 00:47:17;;;;;;;7.63;5.38;;;;;;;;;;5035949;28;20070;-68
2023/10/01 00:49:47;;;;;;;11.82;5.40;;;;;;;;;;5037462;28;20058;-68
2023/10/01 00:52:13;;;;;;;7.82;5.15;;;;;;;;;;5038083;28;20024;-68
2023/10/01 00:54:38;;;;;;;9.43;5.18;;;;;;;;;;5050528;28;20020;-68
2023/10/01 00:57:04;;;;;;;9.93;5.43;;;;;;;;;;5046995;28;20973;-68
2023/10/01 00:59:32;;;;;;;9.32;5.28;;;;;;;;;;5049295;28;20891;-68
2023/10/01 01:01:58;;;;;;;8.52;4.03;;;;;;;;;;5059535;28;20034;-68
2023/10/01 01:04:23;;;;;;;6.90;4.53;;;;;;;;;;5048841;28;20024;-67
2023/10/01 01:06:49;;;;;;;9.00;5.28;;;;;;;;;;5049770;28;20016;-68
2023/10/01 01:09:15;;;;;;;8.10;4.65;;;;;;;;;;5046328;28;20089;-68
2023/10/01 01:11:40;;;;;;;8.52;4.70;;;;;;;;;;5039464;28;20024;-68
2023/10/01 01:14:07;;;;;;;7.40;4.68;;;;;;;;;;5030213;28;21018;-68
2023/10/01 01:16:33;;;;;;;9.40;5.78;;;;;;;;;;5046187;28;20141;-68
2023/10/01 01:19:00;;;;;;;12.80;4.75;;;;;;;;;;5037735;28;20079;-68
2023/10/01 01:21:25;;;;;;;6.95;5.05;;;;;;;;;;5046241;28;20039;-68
2023/10/01 01:23:51;;;;;;;9.73;4.80;;;;;;;;;;5043028;28;20017;-68
2023/10/01 01:26:21;;;;;;;8.32;5.43;;;;;;;;;;5027152;28;20413;-68
2023/10/01 01:28:46;;;;;;;8.75;4.93;;;;;;;;;;5050626;28;20069;-67
2023/10/01 01:31:13;;;;;;;7.78;4.72;;;;;;;;;;5048458;28;20024;-67
2023/10/01 01:33:44;;;;;;;7.68;5.10;;;;;;;;;;5048202;28;20028;-67
2023/10/01 01:36:10;;;;;;;7.57;4.80;;;;;;;;;;5046096;28;20889;-67
2023/10/01 01:38:37;;;;;;;7.68;4.82;;;;;;;;;;5043803;28;20032;-68
2023/10/01 01:41:03;;;;;;;8.15;5.18;;;;;;;;;;5043946;28;20035;-68
2023/10/01 01:43:32;;;;;;;7.70;4.45;;;;;;;;;;5038847;28;20149;-67
2023/10/01 01:46:03;;;;;;;10.27;5.28;;;;;;;;;;5041892;28;20035;-66
2023/10/01 01:50:55;;;;;;;9.35;4.68;;;;;;;;;;5050106;28;20024;-67
2023/10/01 01:53:26;;;;;;;9.68;4.50;;;;;;;;;;5052340;28;20074;-67
2023/10/01 01:55:53;;;;;;;9.38;4.28;;;;;;;;;;5055621;28;20384;-68
2023/10/01 01:58:24;;;;;;;7.35;4.70;;;;;;;;;;5048539;28;20081;-67
2023/10/01 02:01:08;;;;;;;9.63;4.82;;;;;;;;;;5049825;28;20081;-68
2023/10/01 02:03:34;;;;;;;7.50;4.18;;;;;;;;;;5049630;28;20405;-67
2023/10/01 02:06:05;;;;;;;7.40;4.50;;;;;;;;;;5040158;28;20032;-67
2023/10/01 02:08:47;;;;;;;8.38;4.03;;;;;;;;;;5046966;28;20020;-67
2023/10/01 02:11:13;;;;;;;8.88;4.63;;;;;;;;;;5047962;28;20035;-67
2023/10/01 02:13:40;;;;;;;7.75;4.00;;;;;;;;;;5048582;28;20024;-67
2023/10/01 02:18:56;;;;;;;9.15;4.18;;;;;;;;;;5050132;28;20186;-68
2023/10/01 02:21:42;;;;;;;7.97;4.57;;;;;;;;;;5050435;28;20036;-67
2023/10/01 02:24:11;;;;;;;7.30;4.53;;;;;;;;;;5037064;28;20915;-68
2023/10/01 02:26:36;;;;;;;6.80;4.57;;;;;;;;;;5050048;28;20193;-68
2023/10/01 02:29:02;;;;;;;9.68;4.70;;;;;;;;;;5053698;28;20039;-68
2023/10/01 02:31:32;;;;;;;7.65;4.75;;;;;;;;;;5047129;28;20044;-68
2023/10/01 02:34:00;;;;;;;11.05;4.45;;;;;;;;;;5034684;28;20016;-68
2023/10/01 02:36:25;;;;;;;10.05;4.70;;;;;;;;;;5041158;28;20036;-68
2023/10/01 02:38:53;;;;;;;7.30;4.63;;;;;;;;;;5037649;28;20048;-68
2023/10/01 02:41:25;;;;;;;8.43;4.60;;;;;;;;;;5033890;28;20028;-68
2023/10/01 02:43:55;;;;;;;9.43;4.82;;;;;;;;;;5044824;28;20020;-68
2023/10/01 02:46:26;;;;;;;9.57;4.90;;;;;;;;;;5037456;28;20027;-68
2023/10/01 02:48:54;;;;;;;9.73;4.97;;;;;;;;;;5046136;28;20047;-68
2023/10/01 02:51:32;;;;;;;9.07;3.72;;;;;;;;;;5051845;28;20039;-68
2023/10/01 02:54:05;;;;;;;6.85;4.13;;;;;;;;;;5039655;28;20032;-67
2023/10/01 02:56:35;;;;;;;7.53;4.72;;;;;;;;;;5040916;28;20027;-68
2023/10/01 02:59:09;;;;;;;7.05;4.28;;;;;;;;;;5050894;28;20797;-68
2023/10/01 03:01:36;;;;;;;9.48;5.05;;;;;;;;;;5052330;28;20043;-68
2023/10/01 03:04:08;;;;;;;8.52;4.47;;;;;;;;;;5046258;28;20044;-68
2023/10/01 03:06:33;;;;;;;9.25;5.00;;;;;;;;;;5044013;28;20907;-67
2023/10/01 03:08:59;;;;;;;11.40;5.05;;;;;;;;;;5053616;28;20051;-67
2023/10/01 03:11:25;;;;;;;9.38;4.35;;;;;;;;;;5047630;28;20229;-67
2023/10/01 03:13:51;;;;;;;7.45;4.68;;;;;;;;;;5066628;28;20024;-66
2023/10/01 03:19:13;;;;;;;10.07;4.43;;;;;;;;;;5041410;28;20821;-66
2023/10/01 03:24:25;;;;;;;8.75;4.90;;;;;;;;;;5054169;28;20116;-68
2023/10/01 03:26:50;;;;;;;7.10;4.20;;;;;;;;;;5050313;28;20021;-67
2023/10/01 03:29:21;;;;;;;6.70;4.30;;;;;;;;;;5058520;28;20320;-66
2023/10/01 03:31:47;;;;;;;9.93;4.55;;;;;;;;;;5051210;28;20059;-68
2023/10/01 03:34:28;;;;;;;8.55;4.45;;;;;;;;;;5046467;28;20049;-67
2023/10/01 03:37:00;;;;;;;8.93;4.65;;;;;;;;;;5047977;28;20865;-67
2023/10/01 03:39:28;;;;;;;9.98;4.22;;;;;;;;;;5062456;28;20024;-66
2023/10/01 03:42:17;;;;;;;8.15;5.10;;;;;;;;;;5055903;28;20074;-66
2023/10/01 03:47:29;;;;;;;14.15;4.95;;;;;;;;;;5044641;28;20035;-66
2023/10/01 03:49:55;;;;;;;7.30;4.22;;;;;;;;;;5055280;28;20040;-66
2023/10/01 03:52:21;;;;;;;8.00;4.40;;;;;;;;;;5051412;28;20016;-66
2023/10/01 03:57:52;;;;;;;7.97;4.70;;;;;;;;;;5052926;28;20028;-66
2023/10/01 04:00:31;;;;;;;9.48;4.05;;;;;;;;;;5053703;28;20028;-67
2023/10/01 04:02:56;;;;;;;10.40;4.65;;;;;;;;;;5051459;28;20877;-67
2023/10/01 04:05:22;;;;;;;8.90;4.95;;;;;;;;;;5051580;28;20032;-67
2023/10/01 04:07:47;;;;;;;7.93;4.38;;;;;;;;;;5052499;28;20781;-69
2023/10/01 04:10:21;;;;;;;8.13;4.32;;;;;;;;;;5047880;28;20028;-68
2023/10/01 04:12:54;;;;;;;7.28;4.32;;;;;;;;;;5051692;28;20024;-68
2023/10/01 04:15:29;;;;;;;8.20;4.20;;;;;;;;;;5053706;28;20028;-68
2023/10/01 04:21:28;;;;;;;8.80;4.45;;;;;;;;;;5040057;28;20062;-68
2023/10/01 04:23:41;;;;;;;10.48;4.43;;;;;;;;;;5042837;28;20045;-68
2023/10/01 04:26:13;;;;;;;8.00;4.30;;;;;;;;;;5050826;28;20178;-68
2023/10/01 04:28:44;;;;;;;6.95;4.05;;;;;;;;;;5046714;28;20048;-68
2023/10/01 04:31:09;;;;;;;8.52;4.50;;;;;;;;;;5050236;28;20801;-68
2023/10/01 04:33:42;;;;;;;10.63;4.63;;;;;;;;;;5048340;28;20036;-68
2023/10/01 04:36:11;;;;;;;9.85;4.97;;;;;;;;;;5029102;28;20855;-68
2023/10/01 04:38:36;;;;;;;10.10;4.57;;;;;;;;;;5048317;28;20031;-68
2023/10/01 04:41:07;;;;;;;7.70;4.68;;;;;;;;;;5058675;28;20028;-68
2023/10/01 04:43:35;;;;;;;8.68;4.45;;;;;;;;;;5049109;28;20143;-68
2023/10/01 04:46:08;;;;;;;9.93;4.35;;;;;;;;;;5047205;28;20070;-68
2023/10/01 04:48:33;;;;;;;8.70;4.13;;;;;;;;;;5043830;28;20135;-67
2023/10/01 04:50:59;;;;;;;7.43;4.20;;;;;;;;;;5051411;28;20023;-68
2023/10/01 04:53:25;;;;;;;10.05;5.38;;;;;;;;;;5051224;28;20062;-68
2023/10/01 04:56:00;;;;;;;11.00;5.05;;;;;;;;;;5050832;28;20085;-67
2023/10/01 04:58:26;;;;;;;8.48;4.88;;;;;;;;;;5050808;28;20117;-68
2023/10/01 05:00:52;;;;;;;8.48;4.85;;;;;;;;;;5052680;28;20028;-68
2023/10/01 05:03:17;;;;;;;10.05;4.90;;;;;;;;;;5050733;28;20059;-68
2023/10/01 05:05:43;;;;;;;10.90;5.00;;;;;;;;;;5041442;28;20063;-68
2023/10/01 05:08:08;;;;;;;12.45;5.18;;;;;;;;;;5050955;28;20059;-68
2023/10/01 05:10:51;;;;;;;9.70;5.30;;;;;;;;;;5050872;28;20016;-68
2023/10/01 05:13:20;;;;;;;12.18;6.18;;;;;;;;;;5048234;28;20032;-68
2023/10/01 05:15:56;;;;;;;9.15;5.05;;;;;;;;;;5056386;28;20055;-67
2023/10/01 05:18:28;;;;;;;11.52;6.28;;;;;;;;;;5037113;28;20032;-67
2023/10/01 05:20:58;;;;;;;7.70;5.03;;;;;;;;;;5049659;28;20032;-68
2023/10/01 05:23:26;;;;;;;12.85;5.35;;;;;;;;;;5049867;28;20047;-68
2023/10/01 05:25:52;;;;;;;9.75;5.55;;;;;;;;;;5047258;28;20090;-68
2023/10/01 05:28:34;;;;;;;11.95;4.60;;;;;;;;;;5055385;28;20020;-68
2023/10/01 05:31:12;;;;;;;12.20;5.55;;;;;;;;;;5053845;28;20051;-68
2023/10/01 05:33:38;;;;;;;8.18;4.97;;;;;;;;;;5055049;28;20039;-68
2023/10/01 05:36:05;;;;;;;10.85;5.40;;;;;;;;;;5058139;28;20032;-68
2023/10/01 05:38:34;;;;;;;8.75;4.88;;;;;;;;;;5047776;28;20016;-68
2023/10/01 05:41:09;;;;;;;10.45;5.13;;;;;;;;;;5052709;28;20027;-66
2023/10/01 05:43:38;;;;;;;9.60;4.47;;;;;;;;;;5049467;28;20031;-68
2023/10/01 05:46:09;;;;;;;10.10;5.50;;;;;;;;;;5040259;28;20055;-68
2023/10/01 05:48:39;;;;;;;9.00;5.22;;;;;;;;;;5047174;28;20036;-68
2023/10/01 05:51:06;;;;;;;10.30;5.13;;;;;;;;;;5047905;28;20074;-68
2023/10/01 05:53:32;;;;;;;10.77;5.65;;;;;;;;;;5045417;28;20020;-68
2023/10/01 05:56:07;;;;;;;9.73;5.30;;;;;;;;;;5051937;28;20043;-68
2023/10/01 05:58:36;;;;;;;9.13;4.82;;;;;;;;;;5038331;28;20051;-67
2023/10/01 06:01:14;;;;;;;11.15;5.35;;;;;;;;;;5050392;28;20181;-68
2023/10/01 06:03:40;;;;;;;9.95;5.20;;;;;;;;;;5051375;28;20056;-68
2023/10/01 06:06:09;;;;;;;11.57;5.32;;;;;;;;;;5046468;28;20020;-68
2023/10/01 06:08:44;;;;;;;8.95;5.22;;;;;;;;;;5046568;28;20024;-67
2023/10/01 06:11:13;;;;;;;14.23;5.97;;;;;;;;;;5042340;28;20209;-68
2023/10/01 06:13:39;;;;;;;8.27;4.95;;;;;;;;;;5031219;28;20024;-68
2023/10/01 06:16:22;;;;;;;8.43;5.13;;;;;;;;;;5058727;28;20039;-68
2023/10/01 06:18:51;;;;;;;11.30;5.47;;;;;;;;;;5042433;28;20087;-68
2023/10/01 06:21:17;;;;;;;9.50;5.30;;;;;;;;;;5038540;28;20086;-68
2023/10/01 06:23:49;;;;;;;10.43;5.03;;;;;;;;;;5046204;28;20028;-68
2023/10/01 06:26:19;;;;;;;10.40;5.80;;;;;;;;;;5040167;28;20028;-68
2023/10/01 06:28:44;;;;;;;11.27;5.20;;;;;;;;;;5054530;28;20020;-68
2023/10/01 06:31:10;;;;;;;9.73;5.63;;;;;;;;;;5075460;28;20090;-68
2023/10/01 06:33:36;;;;;;;10.32;5.35;;;;;;;;;;5050764;28;20028;-68
2023/10/01 06:36:21;;;;;;;10.30;5.40;;;;;;;;;;5045680;28;20020;-68
2023/10/01 06:38:47;;;;;;;11.60;5.82;;;;;;;;;;5052480;28;20020;-68
2023/10/01 06:41:13;;;;;;;11.63;6.00;;;;;;;;;;5055272;28;20024;-68
2023/10/01 06:43:48;;;;;;;8.50;5.30;;;;;;;;;;5050708;28;20025;-67
2023/10/01 06:46:15;;;;;;;12.20;5.97;;;;;;;;;;5042644;28;20089;-68
2023/10/01 06:48:42;;;;;;;14.25;5.28;;;;;;;;;;5054697;28;20781;-67
2023/10/01 06:51:07;;;;;;;9.35;4.93;;;;;;;;;;5056214;28;20028;-67
2023/10/01 06:53:45;;;;;;;13.00;5.75;;;;;;;;;;5053287;28;20127;-67
2023/10/01 06:56:17;;;;;;;10.45;5.75;;;;;;;;;;5038521;28;20031;-67
2023/10/01 06:59:12;;;;;;;13.60;5.93;;;;;;;;;;5050476;28;20021;-68
2023/10/01 07:01:34;;;;;;;10.00;5.60;;;;;;;;;;5066586;28;20139;-68
2023/10/01 07:04:02;;;;;;;11.07;5.68;;;;;;;;;;5060810;28;20099;-67
2023/10/01 07:06:28;;;;;;;11.50;6.10;;;;;;;;;;5045106;28;20021;-67
2023/10/01 07:08:54;;;;;;;11.77;6.22;;;;;;;;;;5062068;28;20067;-67
2023/10/01 07:11:19;;;;;;;10.38;6.05;;;;;;;;;;5038148;28;20024;-67
2023/10/01 07:13:46;;;;;;;13.63;5.95;;;;;;;;;;5052761;28;20135;-67
2023/10/01 07:16:17;;;;;;;16.33;6.20;;;;;;;;;;5046362;28;20029;-68
2023/10/01 07:18:43;;;;;;;12.07;6.72;;;;;;;;;;5062576;28;20127;-67
2023/10/01 07:21:11;;;;;;;11.70;6.75;;;;;;;;;;5045544;28;20032;-67
2023/10/01 07:23:37;;;;;;;10.48;5.30;;;;;;;;;;5058654;28;20116;-68
2023/10/01 07:26:03;;;;;;;10.70;5.75;;;;;;;;;;5086985;28;20098;-68
2023/10/01 07:28:30;;;;;;;14.38;7.40;;;;;;;;;;5096115;28;20062;-68
2023/10/01 07:31:02;;;;;;;10.18;5.82;;;;;;;;;;5080567;28;20032;-66
2023/10/01 07:33:28;;;;;;;12.48;6.13;;;;;;;;;;5079369;28;20028;-69
2023/10/01 07:36:00;;;;;;;13.55;6.32;;;;;;;;;;5076346;28;20016;-68
2023/10/01 07:38:28;;;;;;;11.90;5.95;;;;;;;;;;5078561;28;20383;-68
2023/10/01 07:41:07;;;;;;;11.35;6.00;;;;;;;;;;5077513;28;20471;-68
2023/10/01 07:43:33;;;;;;;11.95;6.20;;;;;;;;;;5087987;28;20036;-68
2023/10/01 07:45:59;;;;;;;13.32;6.55;;;;;;;;;;5077281;28;20078;-69
2023/10/01 07:48:28;;;;;;;13.63;6.35;;;;;;;;;;5080611;28;20538;-68
2023/10/01 07:50:53;;;;;;;10.98;5.78;;;;;;;;;;5093407;28;20158;-69
2023/10/01 07:53:18;;;;;;;11.80;6.55;;;;;;;;;;5091891;28;20103;-68
2023/10/01 07:55:47;;;;;;;13.30;6.72;;;;;;;;;;5086735;28;20087;-68
2023/10/01 07:58:25;;;;;;;13.48;6.15;;;;;;;;;;5084976;28;20066;-68
2023/10/01 08:01:32;;;;;;;10.65;5.75;;;;;;;;;;5085292;28;20455;-68
2023/10/01 08:03:45;;;;;;;13.35;6.25;;;;;;;;;;5080096;28;20036;-68
2023/10/01 08:06:16;;;;;;;10.30;5.82;;;;;;;;;;5082493;28;20029;-68
2023/10/01 08:08:47;;;;;;;12.80;6.32;;;;;;;;;;5085845;28;20038;-68
2023/10/01 08:13:57;;;;;;;12.00;7.30;;;;;;;;;;5087651;28;20035;-68
2023/10/01 08:16:23;;;;;;;11.52;5.93;;;;;;;;;;5080830;28;20387;-68
2023/10/01 08:18:51;;;;;;;14.30;6.50;;;;;;;;;;5079813;28;20447;-68
2023/10/01 08:21:17;;;;;;;10.70;6.60;;;;;;;;;;5079665;28;20033;-69
2023/10/01 08:23:48;;;;;;;11.40;5.75;;;;;;;;;;5073379;28;20024;-69
2023/10/01 08:28:57;;;;;;;14.13;6.55;;;;;;;;;;5057737;28;20186;-69
2023/10/01 08:34:28;;;;;;;12.00;6.55;;;;;;;;;;5085210;28;20214;-69
2023/10/01 08:36:56;;;;;;;13.38;6.63;;;;;;;;;;5077664;28;20032;-69
2023/10/01 08:42:10;;;;;;;11.70;6.05;;;;;;;;;;5074987;28;20152;-68
2023/10/01 08:44:51;;;;;;;13.48;7.03;;;;;;;;;;5074084;28;20490;-69
2023/10/01 08:47:49;;;;;;;13.32;6.63;;;;;;;;;;5071607;28;20023;-68
2023/10/01 08:50:27;;;;;;;16.50;7.82;;;;;;;;;;5037656;28;20063;-68
2023/10/01 08:52:57;;;;;;;11.73;7.18;;;;;;;;;;5037069;28;20143;-68
2023/10/01 08:55:24;;;;;;;12.43;6.35;;;;;;;;;;5047460;28;20055;-68
2023/10/01 08:57:55;;;;;;;13.30;7.05;;;;;;;;;;5058464;28;20026;-68
2023/10/01 09:00:24;;;;;;;13.35;7.07;;;;;;;;;;5078862;28;20085;-69
2023/10/01 09:02:55;;;;;;;13.43;7.53;;;;;;;;;;5091588;28;20032;-69
2023/10/01 09:05:24;;;;;;;13.35;7.65;;;;;;;;;;5052956;28;20046;-69
2023/10/01 09:07:51;;;;;;;11.60;6.63;;;;;;;;;;5073865;28;20078;-69
2023/10/01 09:10:18;;;;;;;14.57;7.90;;;;;;;;;;5074444;28;20124;-68
2023/10/01 09:12:47;;;;;;;11.80;7.13;;;;;;;;;;5084222;28;20496;-69
2023/10/01 09:15:27;;;;;;;13.75;7.10;;;;;;;;;;5072949;28;20020;-68
2023/10/01 09:17:56;;;;;;;16.63;7.50;;;;;;;;;;5071551;28;20422;-68
2023/10/01 09:20:42;;;;;;;13.73;6.97;;;;;;;;;;5071865;28;20139;-68
2023/10/01 09:23:08;;;;;;;13.05;6.80;;;;;;;;;;5074380;28;20035;-69
2023/10/01 09:25:34;;;;;;;14.80;6.80;;;;;;;;;;5085416;28;20028;-69
2023/10/01 09:28:43;;;;;;;13.35;7.50;;;;;;;;;;5078143;28;20110;-69
2023/10/01 09:30:55;;;;;;;13.38;7.15;;;;;;;;;;5075551;28;20040;-69
2023/10/01 09:33:24;;;;;;;13.65;7.07;;;;;;;;;;5075979;28;20021;-75
2023/10/01 09:36:02;;;;;;;14.23;7.38;;;;;;;;;;5081401;28;20133;-68
2023/10/01 09:38:28;;;;;;;13.35;7.45;;;;;;;;;;5074719;28;20021;-68
2023/10/01 09:40:55;;;;;;;15.10;7.65;;;;;;;;;;5080970;28;20433;-68
2023/10/01 09:43:42;;;;;;;11.02;7.18;;;;;;;;;;5073781;28;20036;-67
2023/10/01 09:46:07;;;;;;;14.90;6.72;;;;;;;;;;5073279;28;20471;-68
2023/10/01 09:48:34;;;;;;;13.75;7.60;;;;;;;;;;5081606;28;20049;-68
2023/10/01 09:51:03;;;;;;;12.73;6.72;;;;;;;;;;5088873;28;20020;-68
2023/10/01 09:53:31;;;;;;;12.52;6.55;;;;;;;;;;5089979;28;20101;-69
2023/10/01 09:55:57;;;;;;;14.52;7.63;;;;;;;;;;5075183;28;20028;-68
2023/10/01 09:58:26;;;;;;;15.27;7.32;;;;;;;;;;5047217;28;20055;-68
2023/10/01 10:00:53;;;;;;;13.85;7.10;;;;;;;;;;5048690;28;20956;-68
2023/10/01 10:03:18;;;;;;;14.10;7.72;;;;;;;;;;5044030;28;20032;-67
2023/10/01 10:05:46;;;;;;;11.88;7.03;;;;;;;;;;5036696;28;20032;-68
2023/10/01 10:08:15;;;;;;;14.95;7.40;;;;;;;;;;5081637;28;20023;-68
2023/10/01 10:10:48;;;;;;;14.68;7.47;;;;;;;;;;5084347;28;20020;-68
2023/10/01 10:14:05;;;;;;;11.95;6.43;;;;;;;;;;5085594;28;20094;-67
2023/10/01 10:16:32;;;;;;;11.85;6.65;;;;;;;;;;5086204;28;20544;-68
2023/10/01 10:19:08;;;;;;;13.70;7.10;;;;;;;;;;5077925;28;20020;-68
2023/10/01 10:24:30;;;;;;;12.25;6.57;;;;;;;;;;5085565;28;20397;-68
2023/10/01 10:27:06;;;;;;;12.48;6.55;;;;;;;;;;5077993;28;20027;-67
2023/10/01 10:29:49;;;;;;;14.50;7.30;;;;;;;;;;5080682;28;20027;-68
2023/10/01 10:32:14;;;;;;;11.80;6.65;;;;;;;;;;5080826;28;20015;-68
2023/10/01 10:35:03;;;;;;;14.57;6.82;;;;;;;;;;5083247;28;20078;-68
2023/10/01 10:37:34;;;;;;;12.38;7.50;;;;;;;;;;5080645;28;20024;-67
2023/10/01 10:40:04;;;;;;;13.25;6.82;;;;;;;;;;5077598;28;20528;-69
2023/10/01 10:42:30;;;;;;;10.10;5.93;;;;;;;;;;5082560;28;20028;-69
2023/10/01 10:45:19;;;;;;;12.43;6.40;;;;;;;;;;5083658;28;20063;-69
2023/10/01 10:48:13;;;;;;;13.27;6.93;;;;;;;;;;5080262;28;20558;-69
2023/10/01 10:50:48;;;;;;;12.00;7.05;;;;;;;;;;5074396;28;20039;-69
2023/10/01 10:53:19;;;;;;;11.85;7.15;;;;;;;;;;5089913;28;20028;-69
2023/10/01 10:55:54;;;;;;;11.88;6.47;;;;;;;;;;5089650;28;20085;-67
2023/10/01 10:58:20;;;;;;;12.55;6.88;;;;;;;;;;5055604;28;20032;-68
2023/10/01 11:00:47;;;;;;;14.02;7.35;;;;;;;;;;5047044;28;20032;-67
2023/10/01 11:03:12;;;;;;;15.48;7.20;;;;;;;;;;5045385;28;20036;-68
2023/10/01 11:05:49;;;;;;;13.18;6.95;;;;;;;;;;5046165;28;20035;-69
2023/10/01 11:08:25;;;;;;;11.75;7.18;;;;;;;;;;5046830;28;20035;-68
2023/10/01 11:10:51;;;;;;;12.43;7.32;;;;;;;;;;5051599;28;20051;-68
2023/10/01 11:13:27;;;;;;;13.10;7.45;;;;;;;;;;5088194;28;20055;-69
2023/10/01 11:15:52;;;;;;;12.80;6.93;;;;;;;;;;5090140;28;20839;-69
2023/10/01 11:18:25;;;;;;;13.05;6.55;;;;;;;;;;5091079;28;20039;-69
2023/10/01 11:21:01;;;;;;;11.02;7.18;;;;;;;;;;5092770;28;20108;-68
2023/10/01 11:23:26;;;;;;;13.25;7.43;;;;;;;;;;5087622;28;20424;-69
2023/10/01 11:25:51;;;;;;;16.02;6.78;;;;;;;;;;5053974;28;20065;-67
2023/10/01 11:28:17;;;;;;;11.30;6.97;;;;;;;;;;5049785;28;20866;-67
2023/10/01 11:30:42;;;;;;;13.65;7.20;;;;;;;;;;5047459;28;20899;-68
2023/10/01 11:35:37;;;;;;;12.77;7.15;;;;;;;;;;5040176;28;20094;-68
2023/10/01 11:38:07;;;;;;;13.82;7.32;;;;;;;;;;5062672;28;20081;-68
2023/10/01 11:43:27;;;;;;;12.57;7.13;;;;;;;;;;5091977;28;20085;-69
2023/10/01 11:46:20;;;;;;;13.30;7.78;;;;;;;;;;5068174;28;20133;-69
2023/10/01 11:49:05;;;;;;;12.23;6.73;;;;;;;;;;5049713;28;20020;-69
2023/10/01 11:51:36;;;;;;;;;;;;;;;;;;5050066;28;20056;-68
2023/10/01 11:54:09;;;;;;;13.35;6.22;;;;;;;;;;5047639;28;19916;-68
2023/10/01 11:56:37;;;;;;;13.55;7.45;;;;;;;;;;5077549;28;20016;-68
2023/10/01 11:59:10;;;;;;;12.30;7.20;;;;;;;;;;5088668;28;20027;-68
2023/10/01 12:01:39;;;;;;;11.50;7.20;;;;;;;;;;5089305;28;20434;-68
2023/10/01 12:04:06;;;;;;;13.93;7.10;;;;;;;;;;5087622;28;20024;-68
2023/10/01 12:06:33;;;;;;;12.20;7.82;;;;;;;;;;5089983;28;20109;-68
2023/10/01 12:08:59;;;;;;;12.40;7.35;;;;;;;;;;5090288;28;20028;-68
2023/10/01 12:11:27;;;;;;;11.43;7.07;;;;;;;;;;5092278;28;20379;-68
2023/10/01 12:14:05;;;;;;;14.10;7.63;;;;;;;;;;5085479;28;20616;-69
2023/10/01 12:16:35;;;;;;;14.52;7.72;;;;;;;;;;5074437;28;20035;-68
2023/10/01 12:21:45;;;;;;;12.38;7.07;;;;;;;;;;5091515;28;20232;-69
2023/10/01 12:24:13;;;;;;;10.05;6.65;;;;;;;;;;5091664;28;20024;-68
2023/10/01 12:26:39;;;;;;;11.02;7.20;;;;;;;;;;5090023;28;20048;-68
2023/10/01 12:29:11;;;;;;;10.95;6.95;;;;;;;;;;5091374;28;20074;-68
2023/10/01 12:31:37;;;;;;;13.32;7.72;;;;;;;;;;5083957;28;20169;-69
2023/10/01 12:34:02;;;;;;;11.95;8.00;;;;;;;;;;5084771;28;20106;-68
2023/10/01 12:36:45;;;;;;;12.57;7.47;;;;;;;;;;5059274;28;20020;-68
2023/10/01 12:44:32;;;;;;;12.10;7.50;;;;;;;;;;5050162;28;20875;-68
2023/10/01 12:47:00;;;;;;;12.45;8.40;;;;;;;;;;5073510;28;20470;-66
2023/10/01 12:49:31;;;;;;;14.30;8.80;;;;;;;;;;5084478;28;20506;-67
2023/10/01 12:51:57;;;;;;;12.82;8.13;;;;;;;;;;5074227;28;20107;-66
2023/10/01 12:54:25;;;;;;;11.85;8.52;;;;;;;;;;5077047;28;20055;-66
2023/10/01 12:57:09;;;;;;;13.55;7.75;;;;;;;;;;5080836;28;20024;-67
2023/10/01 12:59:41;;;;;;;;;;;;;;;;;;5074577;28;20055;-68
2023/10/01 13:02:24;;;;;;;12.75;7.22;;;;;;;;;;5073010;28;19981;-65
2023/10/01 13:04:50;;;;;;;12.80;7.63;;;;;;;;;;5036555;28;20185;-68
2023/10/01 13:07:27;;;;;;;12.50;7.53;;;;;;;;;;5049856;28;20906;-68
2023/10/01 13:09:53;;;;;;;11.13;7.32;;;;;;;;;;5037103;28;20095;-67
2023/10/01 13:12:24;;;;;;;10.63;7.38;;;;;;;;;;5071669;28;20475;-67
2023/10/01 13:18:00;;;;;;;15.98;7.32;;;;;;;;;;4999137;28;20041;-68
2023/10/01 13:20:46;;;;;;;10.60;7.70;;;;;;;;;;5038799;28;20032;-68
2023/10/01 13:23:12;;;;;;;14.10;8.93;;;;;;;;;;5042943;28;20242;-67
2023/10/01 13:25:37;;;;;;;13.00;8.30;;;;;;;;;;5049024;28;20060;-68
2023/10/01 13:28:06;;;;;;;12.52;7.97;;;;;;;;;;5045303;28;20031;-68
2023/10/01 13:30:31;;;;;;;14.90;8.18;;;;;;;;;;5040530;28;20025;-67
2023/10/01 13:33:16;;;;;;;15.55;8.68;;;;;;;;;;5039362;28;20827;-68
2023/10/01 13:36:12;;;;;;;12.02;7.97;;;;;;;;;;5039689;28;20219;-68
2023/10/01 14:10:54;;;;;;;13.68;9.27;;;;;;;;;;5048761;28;20094;-68
2023/10/01 14:13:29;;;;;;;14.33;10.00;;;;;;;;;;5049389;28;20854;-67
2023/10/01 14:16:11;;;;;;;12.63;9.57;;;;;;;;;;5061195;28;20278;-67
2023/10/01 14:18:37;;;;;;;12.30;8.90;;;;;;;;;;5064570;28;20020;-71
2023/10/01 14:21:12;;;;;;;13.82;9.93;;;;;;;;;;5062952;28;20036;-67
2023/10/01 14:23:42;;;;;;;14.40;9.18;;;;;;;;;;5047353;28;20032;-68
2023/10/01 14:26:10;;;;;;;14.25;9.35;;;;;;;;;;5072767;28;20035;-67
2023/10/01 14:28:36;;;;;;;13.73;9.45;;;;;;;;;;5044822;28;20827;-67
2023/10/01 14:31:07;;;;;;;15.60;10.02;;;;;;;;;;5039880;28;20078;-68
2023/10/01 14:33:34;;;;;;;13.48;9.02;;;;;;;;;;5020016;28;20787;-68
2023/10/01 14:36:05;;;;;;;13.02;8.93;;;;;;;;;;5046459;28;20056;-69
2023/10/01 14:38:37;;;;;;;15.68;9.95;;;;;;;;;;5047684;28;20089;-64
2023/10/01 14:41:04;;;;;;;16.73;8.88;;;;;;;;;;5047963;28;20099;-66
2023/10/01 14:43:29;;;;;;;12.27;8.73;;;;;;;;;;5059194;28;20024;-65
2023/10/01 14:45:54;;;;;;;16.20;9.48;;;;;;;;;;5082086;28;20395;-67
2023/10/01 14:48:22;;;;;;;13.87;9.50;;;;;;;;;;5041633;28;20028;-67
2023/10/01 14:50:48;;;;;;;14.40;9.82;;;;;;;;;;5085655;28;20690;-67
2023/10/01 14:53:13;;;;;;;15.40;9.63;;;;;;;;;;5042493;28;20137;-66
2023/10/01 14:55:42;;;;;;;14.25;9.48;;;;;;;;;;5040915;28;20031;-66
2023/10/01 14:58:14;;;;;;;13.73;9.15;;;;;;;;;;5037781;28;20073;-66
2023/10/01 15:00:49;;;;;;;14.75;9.68;;;;;;;;;;5039012;28;20039;-68
2023/10/01 15:03:18;;;;;;;18.35;10.32;;;;;;;;;;5020571;28;20069;-67
2023/10/01 15:05:44;;;;;;;13.45;9.50;;;;;;;;;;5049880;28;20058;-67
2023/10/01 15:08:09;;;;;;;13.63;8.75;;;;;;;;;;5039374;28;20024;-67
2023/10/01 15:10:34;;;;;;;15.20;9.23;;;;;;;;;;5080316;28;20454;-67
2023/10/01 15:13:02;;;;;;;13.83;8.97;;;;;;;;;;5091953;28;20312;-65
2023/10/01 15:15:30;;;;;;;16.33;9.43;;;;;;;;;;5069358;28;20024;-66
2023/10/01 15:17:56;;;;;;;13.65;8.50;;;;;;;;;;5067884;28;20074;-67
2023/10/01 15:20:27;;;;;;;14.05;8.73;;;;;;;;;;5050039;28;20036;-67
2023/10/01 15:22:55;;;;;;;14.23;9.30;;;;;;;;;;5050157;28;20120;-68
2023/10/01 15:25:21;;;;;;;13.85;8.52;;;;;;;;;;5044826;28;20075;-68
2023/10/01 15:27:47;;;;;;;13.95;9.05;;;;;;;;;;5051797;28;20058;-68
2023/10/01 15:30:21;;;;;;;16.58;9.63;;;;;;;;;;5042195;28;20167;-68
2023/10/01 15:32:55;;;;;;;15.50;8.88;;;;;;;;;;5044909;28;20069;-68
2023/10/01 15:35:22;;;;;;;15.52;8.68;;;;;;;;;;5041781;28;20024;-68
2023/10/01 15:37:48;;;;;;;14.23;8.40;;;;;;;;;;5048350;28;20024;-68
2023/10/01 15:40:25;;;;;;;15.55;9.15;;;;;;;;;;5038683;28;20110;-68
2023/10/01 15:42:53;;;;;;;16.13;9.23;;;;;;;;;;5049821;28;20151;-67
2023/10/01 15:45:19;;;;;;;14.32;9.18;;;;;;;;;;5048854;28;20139;-68
2023/10/01 15:47:46;;;;;;;16.55;9.23;;;;;;;;;;5047726;28;20035;-68
2023/10/01 15:50:16;;;;;;;14.45;8.73;;;;;;;;;;5038728;28;20020;-68
2023/10/01 15:52:47;;;;;;;15.60;8.63;;;;;;;;;;5048645;28;20137;-68
2023/10/01 15:55:13;;;;;;;16.20;9.10;;;;;;;;;;5048814;28;20128;-67
2023/10/01 15:57:39;;;;;;;14.05;9.10;;;;;;;;;;5050434;28;20016;-66
2023/10/01 16:00:23;;;;;;;15.57;9.18;;;;;;;;;;5040851;28;20913;-66
2023/10/01 16:02:49;;;;;;;15.85;9.40;;;;;;;;;;5042534;28;20070;-68
2023/10/01 16:05:15;;;;;;;13.85;8.90;;;;;;;;;;5048705;28;20020;-67
2023/10/01 16:07:44;;;;;;;14.63;8.77;;;;;;;;;;5048338;28;20533;-68
2023/10/01 16:10:11;;;;;;;15.05;9.13;;;;;;;;;;5039077;28;20048;-67
2023/10/01 16:12:36;;;;;;;14.15;8.80;;;;;;;;;;5045122;28;20031;-67